createdAt,value
2023-03-06T00:01:44.774Z,0
2023-03-06T00:06:44.780Z,0
2023-03-06T00:11:44.837Z,0
2023-03-06T00:16:44.888Z,0
2023-03-06T00:21:44.885Z,0
2023-03-06T00:26:44.901Z,0
2023-03-06T00:31:45.026Z,0
2023-03-06T00:36:44.949Z,0
2023-03-06T00:41:46.963Z,0
2023-03-06T00:46:44.966Z,0
2023-03-06T00:51:44.996Z,0
2023-03-06T00:56:45.012Z,0
2023-03-06T01:01:45.045Z,0
2023-03-06T01:06:45.078Z,0
2023-03-06T01:11:45.055Z,0
2023-03-06T01:16:45.142Z,0
2023-03-06T01:21:45.101Z,0
2023-03-06T01:26:45.135Z,0
2023-03-06T01:31:45.189Z,0
2023-03-06T01:36:45.204Z,0
2023-03-06T01:41:45.198Z,0
2023-03-06T01:46:45.241Z,0
2023-03-06T01:51:45.251Z,0
2023-03-06T01:56:45.297Z,0
2023-03-06T02:01:45.297Z,0
2023-03-06T02:06:45.292Z,0
2023-03-06T02:11:45.423Z,0
2023-03-06T02:16:45.379Z,0
2023-03-06T02:21:45.340Z,0
2023-03-06T02:26:45.372Z,0
2023-03-06T02:31:45.401Z,0
2023-03-06T02:36:45.425Z,0
2023-03-06T02:41:45.862Z,0
2023-03-06T02:46:45.728Z,0
2023-03-06T02:51:45.750Z,0
2023-03-06T02:56:45.781Z,0
2023-03-06T03:01:45.845Z,0
2023-03-06T03:06:45.778Z,0
2023-03-06T03:11:45.818Z,0
2023-03-06T03:16:45.830Z,0
2023-03-06T03:21:45.831Z,0
2023-03-06T03:26:45.851Z,0
2023-03-06T03:31:45.917Z,0
2023-03-06T03:36:45.965Z,0
2023-03-06T03:41:45.922Z,0
2023-03-06T03:46:45.981Z,0
2023-03-06T03:51:45.965Z,0
2023-03-06T03:56:46.003Z,0
2023-03-06T04:01:46.066Z,0
2023-03-06T04:06:46.002Z,0
2023-03-06T04:11:46.052Z,0
2023-03-06T04:16:46.105Z,0
2023-03-06T04:21:46.079Z,0
2023-03-06T04:26:46.110Z,0
2023-03-06T04:31:46.178Z,0
2023-03-06T04:36:46.158Z,0
2023-03-06T04:41:46.165Z,0
2023-03-06T04:46:46.198Z,0
2023-03-06T04:51:46.202Z,0
2023-03-06T04:56:46.272Z,0
2023-03-06T05:01:46.271Z,0
2023-03-06T05:06:46.280Z,0
2023-03-06T05:11:46.268Z,0
2023-03-06T05:16:46.362Z,0
2023-03-06T05:21:46.299Z,0
2023-03-06T05:26:46.365Z,0
2023-03-06T05:31:46.438Z,0
2023-03-06T05:36:46.445Z,0
2023-03-06T05:41:46.423Z,0
2023-03-06T05:46:46.440Z,0
2023-03-06T05:51:46.434Z,0
2023-03-06T05:56:46.506Z,0
2023-03-06T06:01:46.495Z,0
2023-03-06T06:06:46.531Z,0
2023-03-06T06:11:46.551Z,1
2023-03-06T06:16:46.581Z,2
2023-03-06T06:21:46.580Z,4
2023-03-06T06:26:46.593Z,3
2023-03-06T06:31:46.591Z,4
2023-03-06T06:36:46.670Z,5
2023-03-06T06:41:59.724Z,12
2023-03-06T06:51:46.756Z,18
2023-03-06T06:56:46.736Z,20
2023-03-06T07:01:46.841Z,23
2023-03-06T07:06:46.809Z,24
2023-03-06T07:11:46.766Z,25
2023-03-06T07:16:46.818Z,22
2023-03-06T07:21:46.842Z,24
2023-03-06T07:26:46.864Z,30
2023-03-06T07:31:46.882Z,32
2023-03-06T07:36:46.900Z,33
2023-03-06T07:41:46.926Z,30
2023-03-06T07:46:46.977Z,22
2023-03-06T07:51:46.977Z,22
2023-03-06T07:56:47.012Z,22
2023-03-06T08:01:46.994Z,23
2023-03-06T08:06:47.044Z,23
2023-03-06T08:11:47.045Z,22
2023-03-06T08:16:47.103Z,29
2023-03-06T08:21:47.073Z,32
2023-03-06T08:26:47.107Z,17
2023-03-06T08:31:47.167Z,18
2023-03-06T08:36:47.213Z,15
2023-03-06T08:41:47.165Z,12
2023-03-06T08:46:47.171Z,10
2023-03-06T08:51:47.198Z,11
2023-03-06T08:56:47.263Z,13
2023-03-06T09:01:47.226Z,14
2023-03-06T09:06:47.255Z,17
2023-03-06T09:11:47.284Z,24
2023-03-06T09:16:47.482Z,18
2023-03-06T09:21:47.361Z,15
2023-03-06T09:26:48.870Z,15
2023-03-06T09:31:47.387Z,18
2023-03-06T09:36:56.385Z,18
2023-03-06T09:41:47.439Z,16
2023-03-06T09:46:47.457Z,14
2023-03-06T09:51:47.461Z,19
2023-03-06T09:56:47.572Z,19
2023-03-06T10:01:47.504Z,13
2023-03-06T10:06:47.527Z,13
2023-03-06T10:11:47.557Z,15
2023-03-06T10:16:47.585Z,14
2023-03-06T10:21:47.587Z,21
2023-03-06T10:26:47.804Z,33
2023-03-06T10:31:47.882Z,99
2023-03-06T10:36:47.687Z,138
2023-03-06T10:41:47.685Z,146
2023-03-06T10:46:47.774Z,161
2023-03-06T10:51:47.743Z,144
2023-03-06T10:56:52.626Z,78
2023-03-06T11:01:52.655Z,61
2023-03-06T11:06:52.666Z,69
2023-03-06T11:11:52.615Z,70
2023-03-06T11:16:52.749Z,63
2023-03-06T11:21:52.716Z,70
2023-03-06T11:26:52.740Z,119
2023-03-06T11:31:52.765Z,134
2023-03-06T11:36:52.749Z,137
2023-03-06T11:41:52.801Z,130
2023-03-06T11:46:52.951Z,193
2023-03-06T11:51:52.785Z,436
2023-03-06T11:56:52.842Z,287
2023-03-06T12:01:52.988Z,180
2023-03-06T12:06:52.884Z,242
2023-03-06T12:11:52.899Z,369
2023-03-06T12:16:53.021Z,598
2023-03-06T12:21:52.945Z,420
2023-03-06T12:26:52.952Z,192
2023-03-06T12:31:53.026Z,118
2023-03-06T12:36:53.003Z,117
2023-03-06T12:41:52.979Z,177
2023-03-06T12:46:53.009Z,219
2023-03-06T12:51:53.063Z,354
2023-03-06T12:56:53.101Z,446
2023-03-06T13:01:53.235Z,451
2023-03-06T13:06:53.116Z,348
2023-03-06T13:11:53.147Z,246
2023-03-06T13:16:53.318Z,213
2023-03-06T13:21:53.188Z,192
2023-03-06T13:26:53.201Z,341
2023-03-06T13:31:53.233Z,505
2023-03-06T13:36:53.272Z,642
2023-03-06T13:41:53.234Z,681
2023-03-06T13:46:53.280Z,633
2023-03-06T13:51:53.329Z,637
2023-03-06T13:56:53.333Z,613
2023-03-06T14:01:53.378Z,603
2023-03-06T14:06:53.362Z,593
2023-03-06T14:11:53.405Z,578
2023-03-06T14:16:53.557Z,530
2023-03-06T14:21:53.390Z,493
2023-03-06T14:26:53.404Z,446
2023-03-06T14:31:53.488Z,404
2023-03-06T14:36:53.514Z,366
2023-03-06T14:41:53.480Z,308
2023-03-06T14:46:53.600Z,285
2023-03-06T14:51:53.548Z,261
2023-03-06T14:56:53.607Z,253
2023-03-06T15:01:53.645Z,220
2023-03-06T15:06:53.648Z,180
2023-03-06T15:11:53.611Z,156
2023-03-06T15:16:53.668Z,156
2023-03-06T15:21:53.668Z,151
2023-03-06T15:26:53.706Z,141
2023-03-06T15:31:53.724Z,131
2023-03-06T15:36:53.907Z,126
2023-03-06T15:41:53.711Z,108
2023-03-06T15:46:59.202Z,109
2023-03-06T15:51:53.889Z,107
2023-03-06T15:56:53.846Z,95
2023-03-06T16:01:53.843Z,78
2023-03-06T16:06:54.123Z,65
2023-03-06T16:11:54.130Z,57
2023-03-06T16:16:54.359Z,47
2023-03-06T16:21:54.679Z,39
2023-03-06T16:26:55.012Z,32
2023-03-06T16:31:54.974Z,27
2023-03-06T16:36:55.021Z,20
2023-03-06T16:41:54.979Z,15
2023-03-06T16:46:55.015Z,10
2023-03-06T16:51:55.049Z,15
2023-03-06T16:56:55.107Z,6
2023-03-06T17:01:55.082Z,2
2023-03-06T17:06:55.112Z,0
2023-03-06T17:11:55.115Z,0
2023-03-06T17:16:55.185Z,0
2023-03-06T17:21:55.165Z,0
2023-03-06T17:26:55.181Z,0
2023-03-06T17:31:55.191Z,0
2023-03-06T17:36:55.312Z,0
2023-03-06T17:41:55.222Z,0
2023-03-06T17:46:55.274Z,0
2023-03-06T17:51:55.272Z,0
2023-03-06T17:56:55.333Z,0
2023-03-06T18:01:55.364Z,0
2023-03-06T18:06:55.345Z,0
2023-03-06T18:11:55.370Z,0
2023-03-06T18:16:55.464Z,0
2023-03-06T18:21:55.407Z,0
2023-03-06T18:26:55.431Z,0
2023-03-06T18:31:55.452Z,0
2023-03-06T18:36:55.489Z,0
2023-03-06T18:41:55.472Z,0
2023-03-06T18:46:55.501Z,0
2023-03-06T18:51:55.523Z,0
2023-03-06T18:52:43.718Z,0
2023-03-06T18:56:55.519Z,0
2023-03-06T18:58:02.667Z,0
2023-03-06T19:01:55.546Z,0
2023-03-06T19:06:55.593Z,0
2023-03-06T19:11:55.639Z,0
2023-03-06T19:16:55.599Z,0
2023-03-06T19:21:55.633Z,0
2023-03-06T19:26:55.662Z,0
2023-03-06T19:31:55.786Z,0
2023-03-06T19:36:55.707Z,0
2023-03-06T19:41:55.728Z,0
2023-03-06T19:46:55.752Z,0
2023-03-06T19:51:55.787Z,0
2023-03-06T19:56:55.783Z,0
2023-03-06T20:01:55.843Z,0
2023-03-06T20:06:55.794Z,0
2023-03-06T20:11:55.835Z,0
2023-03-06T20:16:55.855Z,0
2023-03-06T20:21:55.888Z,0
2023-03-06T20:26:55.876Z,0
2023-03-06T20:31:56.165Z,0
2023-03-06T20:36:56.176Z,0
2023-03-06T20:41:56.186Z,0
2023-03-06T20:46:56.213Z,0
2023-03-06T20:51:56.275Z,0
2023-03-06T20:56:56.237Z,0
2023-03-06T21:01:56.245Z,0
2023-03-06T21:06:56.303Z,0
2023-03-06T21:11:56.314Z,0
2023-03-06T21:16:56.447Z,0
2023-03-06T21:21:56.345Z,0
2023-03-06T21:26:56.354Z,0
2023-03-06T21:31:56.400Z,0
2023-03-06T21:36:56.399Z,0
2023-03-06T21:41:56.424Z,0
2023-03-06T21:46:56.473Z,0
2023-03-06T21:51:56.571Z,0
2023-03-06T21:56:56.513Z,0
2023-03-06T22:01:56.507Z,0
2023-03-06T22:06:56.536Z,0
2023-03-06T22:11:56.546Z,0
2023-03-06T22:16:56.569Z,0
2023-03-06T22:21:56.582Z,0
2023-03-06T22:26:56.613Z,0
2023-03-06T22:31:56.702Z,0
2023-03-06T22:36:56.638Z,0
2023-03-06T22:41:56.668Z,0
2023-03-06T22:46:56.657Z,0
2023-03-06T22:51:56.734Z,0
2023-03-06T22:56:56.748Z,0
2023-03-06T23:01:56.748Z,0
2023-03-06T23:06:56.766Z,0
2023-03-06T23:11:56.816Z,0
2023-03-06T23:16:56.813Z,0
2023-03-06T23:21:56.836Z,0
2023-03-06T23:26:56.827Z,0
2023-03-06T23:31:56.884Z,0
2023-03-06T23:36:56.895Z,0
2023-03-06T23:41:56.917Z,0
2023-03-06T23:46:56.910Z,0
2023-03-06T23:51:56.988Z,0
2023-03-06T23:56:56.974Z,0
